Ponsford, Minnesota
Current Conditions -  °F | °C
As of 9:13 PM on Saturday 24 Jan 2015 (Local Time) from KPKD Reporting Station
Overcast Overcast  
Wind Chill: 24°   Ceiling: 1600
Heat Index: 32°   Visibility: 10mi
Dew Point: 26°   Wind: 10mph
Humidity: 79%   Direction: 40°NE
Pressure: 29.7"   Gusts: 17mph
Location:  46.97°N, 95.38°W
Report Text: KPKD 250313Z AUTO 04009G15KT 10SM OVC016 00/M03 A2970 RMK AO2 T00001033
Loading
Personal Weather Stations






























Interactive Weather Map New forecast layout! Learn more

10-Day Weather Forecast

Advertisements
Track Severe Weather on mobile